Time;durP1;ratioP1;P1;durP2;ratioP2;P2;SDS_P1;SDS_P2;PMS_P1;PMS_P2;Temp;Humidity;BMP_temperature;BMP_pressure;BME280_temperature;BME280_humidity;BME280_pressure;Samples;Min_cycle;Max_cycle;Signal;HPM_P1;HPM_P2
2022/07/13 00:00:04;;;;;;;8.68;4.05;;;;;;;26.00;58.62;101742.66;4989663;28;20113;-81
2022/07/13 00:02:31;;;;;;;11.77;4.50;;;;;;;26.12;58.30;101745.53;4989372;28;20046;-81
2022/07/13 00:04:58;;;;;;;10.52;4.63;;;;;;;25.51;58.12;101629.69;4989741;28;20052;-81
2022/07/13 00:07:24;;;;;;;8.10;4.50;;;;;;;26.03;58.39;101746.81;4991644;28;20402;-81
2022/07/13 00:09:51;;;;;;;13.63;5.60;;;;;;;25.89;58.46;101718.78;4994119;28;20073;-79
2022/07/13 00:12:18;;;;;;;8.35;4.15;;;;;;;26.06;58.29;101744.50;4993508;28;20527;-82
2022/07/13 00:14:44;;;;;;;6.10;4.28;;;;;;;25.96;58.47;101741.38;4993481;28;20453;-82
2022/07/13 00:17:11;;;;;;;10.13;5.22;;;;;;;25.79;59.01;101730.91;4993209;28;20081;-81
2022/07/13 00:19:37;;;;;;;9.73;4.68;;;;;;;25.76;59.05;101735.94;4993088;28;20053;-81
2022/07/13 00:22:04;;;;;;;10.60;4.70;;;;;;;25.68;59.10;101734.28;5010867;28;20116;-81
2022/07/13 00:24:31;;;;;;;13.52;5.13;;;;;;;25.93;58.71;101756.25;4993393;28;20073;-81
2022/07/13 00:26:57;;;;;;;8.07;4.72;;;;;;;25.53;59.05;101709.16;4994390;28;20505;-81
2022/07/13 00:29:24;;;;;;;5.72;4.88;;;;;;;25.71;59.16;101739.28;4993214;28;20121;-81
2022/07/13 00:31:51;;;;;;;8.60;4.85;;;;;;;25.82;59.13;101756.00;4993221;28;20096;-81
2022/07/13 00:34:17;;;;;;;10.25;5.30;;;;;;;25.51;58.95;101713.94;4993361;28;20133;-82
2022/07/13 00:36:44;;;;;;;8.80;5.10;;;;;;;25.79;59.47;101768.13;4993395;28;20092;-82
2022/07/13 00:39:11;;;;;;;11.77;5.15;;;;;;;25.65;59.77;101745.53;4988651;28;20537;-82
2022/07/13 00:41:45;;;;;;;7.97;4.75;;;;;;;25.93;59.23;101777.19;4973994;28;20564;-83
2022/07/13 00:44:13;;;;;;;7.72;4.78;;;;;;;25.78;59.19;101756.44;4973986;28;20147;-81
2022/07/13 00:46:44;;;;;;;8.77;4.85;;;;;;;25.80;59.52;101773.38;4973615;28;20050;-82
2022/07/13 00:49:19;;;;;;;9.32;5.50;;;;;;;25.78;59.69;101777.38;4975427;28;20054;-80
2022/07/13 00:51:46;;;;;;;8.43;5.93;;;;;;;25.70;59.76;101772.94;4974170;28;20074;-83
2022/07/13 00:54:12;;;;;;;8.38;5.45;;;;;;;25.63;59.68;101779.44;4990109;28;20116;-81
2022/07/13 00:56:40;;;;;;;8.05;5.47;;;;;;;25.63;59.98;101768.53;4999249;28;20053;-82
2022/07/13 00:59:07;;;;;;;13.63;5.72;;;;;;;25.65;60.01;101780.88;5003446;28;20338;-81
2022/07/13 01:01:33;;;;;;;8.98;5.80;;;;;;;25.57;60.02;101765.63;5008842;28;20034;-82
2022/07/13 01:04:00;;;;;;;7.15;5.32;;;;;;;24.93;60.17;101671.03;5017488;28;20065;-84
2022/07/13 01:06:27;;;;;;;9.63;5.95;;;;;;;25.46;60.23;101754.53;5014265;28;20042;-81
2022/07/13 01:08:54;;;;;;;12.23;6.35;;;;;;;25.41;60.23;101738.00;4993485;28;20104;-81
2022/07/13 01:11:21;;;;;;;8.35;5.90;;;;;;;25.72;59.86;101786.34;5010756;28;20073;-81
2022/07/13 01:13:48;;;;;;;11.65;5.22;;;;;;;24.84;60.13;101650.53;4992345;28;20053;-81
2022/07/13 01:16:15;;;;;;;14.57;5.47;;;;;;;25.38;59.88;101744.69;4992575;28;20116;-82
2022/07/13 01:18:43;;;;;;;9.45;6.30;;;;;;;25.58;60.21;101782.75;4991340;28;20526;-81
2022/07/13 01:21:10;;;;;;;15.20;6.38;;;;;;;25.55;60.52;101792.16;5009935;28;20512;-81
2022/07/13 01:23:39;;;;;;;15.05;7.60;;;;;;;25.49;60.20;101765.00;4994129;28;20084;-80
2022/07/13 01:26:07;;;;;;;11.80;7.20;;;;;;;25.56;60.63;101798.47;4992878;28;20409;-82
2022/07/13 01:28:34;;;;;;;14.52;7.50;;;;;;;25.16;60.34;101714.09;4992499;28;20093;-81
2022/07/13 01:31:00;;;;;;;12.60;7.07;;;;;;;25.55;60.48;101805.75;4992102;28;20054;-81
2022/07/13 01:33:27;;;;;;;10.88;7.00;;;;;;;25.52;60.22;101800.75;4992511;28;20249;-81
2022/07/13 01:35:55;;;;;;;10.85;6.70;;;;;;;25.24;60.58;101765.56;4992154;28;20083;-81
2022/07/13 01:38:23;;;;;;;13.55;7.45;;;;;;;25.18;60.39;101768.28;4992802;28;20053;-81
2022/07/13 01:40:50;;;;;;;9.82;6.85;;;;;;;25.23;60.81;101791.06;4991737;28;20497;-80
2022/07/13 01:43:23;;;;;;;16.85;7.20;;;;;;;25.14;61.50;101805.84;4991819;28;20054;-82
2022/07/13 01:45:49;;;;;;;8.23;6.43;;;;;;;25.20;61.72;101815.94;5008487;28;20367;-81
2022/07/13 01:48:16;;;;;;;14.13;6.88;;;;;;;24.70;61.46;101736.53;4991821;28;20049;-81
2022/07/13 01:50:42;;;;;;;8.20;6.70;;;;;;;24.25;62.00;101679.09;4991769;28;20494;-82
2022/07/13 01:53:09;;;;;;;11.30;6.85;;;;;;;24.84;62.25;101787.13;4991765;28;20049;-81
2022/07/13 01:55:36;;;;;;;13.10;6.68;;;;;;;24.92;62.46;101814.13;4991732;28;20052;-81
2022/07/13 01:58:03;;;;;;;9.05;6.32;;;;;;;24.25;62.31;101707.06;4991368;28;20054;-81
2022/07/13 02:00:29;;;;;;;9.95;7.25;;;;;;;24.09;62.44;101674.81;4991327;28;20402;-82
2022/07/13 02:02:56;;;;;;;10.45;7.20;;;;;;;24.82;62.74;101805.50;5008309;28;20054;-81
2022/07/13 02:05:26;;;;;;;9.10;7.00;;;;;;;24.78;62.96;101796.06;4991357;28;20486;-82
2022/07/13 02:07:54;;;;;;;11.38;7.10;;;;;;;24.86;62.41;101808.69;4990336;28;20048;-80
2022/07/13 02:10:20;;;;;;;10.68;7.95;;;;;;;24.70;62.76;101790.84;4990438;28;20045;-81
2022/07/13 02:12:47;;;;;;;9.70;6.07;;;;;;;24.43;63.13;101760.78;4990922;28;20057;-81
2022/07/13 02:15:14;;;;;;;13.98;7.90;;;;;;;24.52;63.51;101797.63;4990955;28;20445;-79
2022/07/13 02:17:40;;;;;;;9.98;7.70;;;;;;;24.67;63.42;101826.53;4977160;28;20078;-81
2022/07/13 02:20:08;;;;;;;13.85;7.38;;;;;;;24.43;63.62;101795.25;4988981;28;20050;-82
2022/07/13 02:22:42;;;;;;;10.68;6.97;;;;;;;24.48;63.70;101804.50;4987747;28;20050;-81
2022/07/13 02:25:10;;;;;;;10.90;6.93;;;;;;;24.62;63.29;101832.56;4971430;28;20409;-82
2022/07/13 02:27:37;;;;;;;10.20;7.10;;;;;;;24.72;62.88;101829.47;4971225;28;20046;-81
2022/07/13 02:30:06;;;;;;;11.25;7.18;;;;;;;24.72;62.94;101816.75;4988071;28;20058;-82
2022/07/13 02:32:33;;;;;;;8.07;7.07;;;;;;;24.60;62.58;101802.06;4971287;28;20109;-82
2022/07/13 02:35:00;;;;;;;13.32;7.25;;;;;;;24.65;62.68;101820.47;4971647;28;20058;-81
2022/07/13 02:37:27;;;;;;;13.70;7.28;;;;;;;24.63;62.49;101811.69;4971780;28;20457;-80
2022/07/13 02:39:55;;;;;;;14.05;7.85;;;;;;;24.48;62.80;101820.78;4973164;28;20105;-81
2022/07/13 02:42:23;;;;;;;14.23;7.97;;;;;;;24.60;62.70;101820.22;4994749;28;20061;-81
2022/07/13 02:44:51;;;;;;;13.02;7.10;;;;;;;23.75;63.02;101708.19;4981195;28;20079;-82
2022/07/13 02:47:18;;;;;;;9.38;7.38;;;;;;;24.39;62.55;101802.09;5004677;28;20250;-82
2022/07/13 02:49:45;;;;;;;11.68;6.95;;;;;;;24.36;62.39;101788.94;4995421;28;20077;-83
2022/07/13 02:52:11;;;;;;;11.50;8.25;;;;;;;24.40;62.30;101809.22;4991839;28;20243;-81
2022/07/13 02:54:38;;;;;;;16.00;7.22;;;;;;;24.61;62.04;101830.03;4989847;28;20458;-80
2022/07/13 02:57:06;;;;;;;12.30;7.63;;;;;;;23.74;61.80;101684.81;4990546;28;20048;-81
2022/07/13 02:59:36;;;;;;;7.65;6.88;;;;;;;24.60;61.55;101831.09;4990651;28;20057;-82
2022/07/13 03:02:04;;;;;;;8.90;7.70;;;;;;;24.60;61.43;101831.09;5007857;28;20050;-81
2022/07/13 03:04:34;;;;;;;10.00;6.95;;;;;;;24.53;61.85;101828.31;4990093;28;20097;-81
2022/07/13 03:07:02;;;;;;;8.25;7.28;;;;;;;23.93;61.58;101729.38;4990120;28;20464;-80
2022/07/13 03:09:29;;;;;;;10.15;6.78;;;;;;;24.53;61.84;101840.00;5007536;28;20046;-80
2022/07/13 03:11:55;;;;;;;15.07;7.38;;;;;;;24.16;61.86;101776.06;4990167;28;20115;-81
2022/07/13 03:14:22;;;;;;;9.43;6.78;;;;;;;24.44;62.46;101841.19;4990140;28;20096;-81
2022/07/13 03:16:49;;;;;;;10.18;8.05;;;;;;;23.65;62.22;101720.16;4994136;28;20077;-81
2022/07/13 03:19:16;;;;;;;10.35;7.22;;;;;;;24.37;62.29;101845.75;4992006;28;20050;-80
2022/07/13 03:21:42;;;;;;;12.18;7.80;;;;;;;24.30;62.73;101847.56;4992063;28;20057;-81
2022/07/13 03:24:09;;;;;;;11.32;8.23;;;;;;;24.37;61.97;101825.88;4991336;28;20528;-80
2022/07/13 03:26:35;;;;;;;10.68;7.72;;;;;;;23.93;62.07;101773.59;4990639;28;20061;-80
2022/07/13 03:29:02;;;;;;;9.77;7.93;;;;;;;24.42;61.90;101843.28;5007714;28;20053;-82
2022/07/13 03:31:29;;;;;;;8.68;7.78;;;;;;;24.32;62.26;101845.47;4990503;28;20050;-80
2022/07/13 03:33:55;;;;;;;13.70;7.93;;;;;;;24.27;62.49;101850.66;4990193;28;20046;-81
2022/07/13 03:36:22;;;;;;;11.00;7.85;;;;;;;24.23;62.70;101854.81;4989581;28;20464;-80
2022/07/13 03:38:49;;;;;;;8.20;7.38;;;;;;;24.09;62.66;101849.25;4988080;28;20473;-82
2022/07/13 03:41:16;;;;;;;14.30;8.32;;;;;;;24.19;62.90;101867.09;4970013;28;20508;-81
2022/07/13 03:43:43;;;;;;;12.55;9.20;;;;;;;24.16;63.00;101865.59;4970568;28;20132;-80
2022/07/13 03:46:09;;;;;;;16.40;9.32;;;;;;;24.02;63.00;101842.94;4987659;28;20383;-81
2022/07/13 03:48:36;;;;;;;13.18;10.38;;;;;;;24.10;63.30;101867.22;4970473;28;20228;-81
2022/07/13 03:51:03;;;;;;;18.45;10.50;;;;;;;24.12;63.43;101847.19;4970766;28;20560;-80
2022/07/13 03:53:29;;;;;;;11.82;9.93;;;;;;;23.88;63.20;101808.59;4979401;28;20046;-81
2022/07/13 03:55:56;;;;;;;16.88;10.63;;;;;;;23.97;62.77;101807.44;4991593;28;20437;-81
2022/07/13 03:58:23;;;;;;;14.43;10.23;;;;;;;24.40;62.84;101877.91;4991584;28;20050;-80
2022/07/13 04:00:49;;;;;;;17.85;9.73;;;;;;;24.19;63.14;101839.94;4990058;28;20046;-81
2022/07/13 04:03:16;;;;;;;14.80;11.10;;;;;;;24.32;63.01;101867.19;4988195;28;20660;-81
2022/07/13 04:05:43;;;;;;;13.23;10.60;;;;;;;24.26;63.10;101865.25;5005550;28;20104;-81
2022/07/13 04:08:10;;;;;;;15.18;10.88;;;;;;;24.08;63.30;101839.47;5005844;28;20461;-81
2022/07/13 04:10:36;;;;;;;12.45;11.07;;;;;;;24.27;63.45;101875.94;4989107;28;20108;-81
2022/07/13 04:13:03;;;;;;;17.00;11.60;;;;;;;23.87;64.05;101825.91;4989168;28;20155;-81
2022/07/13 04:15:36;;;;;;;11.90;10.05;;;;;;;23.97;64.28;101850.81;5006794;28;20046;-81
2022/07/13 04:18:03;;;;;;;14.50;12.02;;;;;;;24.25;64.13;101879.88;5006997;28;20132;-81
2022/07/13 04:20:30;;;;;;;16.73;10.00;;;;;;;24.25;63.64;101869.03;4989385;28;20057;-80
2022/07/13 04:22:56;;;;;;;11.65;10.10;;;;;;;24.30;63.61;101875.53;4989827;28;20111;-81
2022/07/13 04:25:24;;;;;;;15.88;9.85;;;;;;;24.13;63.33;101838.00;5007105;28;20078;-80
2022/07/13 04:27:50;;;;;;;18.10;10.38;;;;;;;24.50;63.32;101883.84;4989071;28;20092;-80
2022/07/13 04:30:17;;;;;;;11.50;10.10;;;;;;;24.39;62.77;101870.78;5005915;28;20513;-79
2022/07/13 04:32:44;;;;;;;17.90;10.70;;;;;;;24.13;63.12;101828.03;5006925;28;20081;-79
2022/07/13 04:35:11;;;;;;;18.55;10.07;;;;;;;24.53;62.89;101894.31;4989047;28;20064;-79
2022/07/13 04:37:37;;;;;;;12.50;10.23;;;;;;;24.51;63.01;101896.38;4988472;28;20058;-80
2022/07/13 04:40:05;;;;;;;14.13;10.15;;;;;;;24.40;62.78;101867.03;4973918;28;20133;-80
2022/07/13 04:42:31;;;;;;;18.65;12.32;;;;;;;24.45;63.22;101893.59;4965203;28;20141;-80
2022/07/13 04:44:58;;;;;;;17.15;10.23;;;;;;;24.29;63.28;101862.16;4967193;28;20140;-80
2022/07/13 04:47:25;;;;;;;13.50;11.75;;;;;;;24.54;63.42;101903.31;4949799;28;20042;-80
2022/07/13 04:49:51;;;;;;;18.98;12.13;;;;;;;24.49;63.16;101890.31;4967656;28;20455;-81
2022/07/13 04:52:18;;;;;;;14.88;11.25;;;;;;;23.73;63.35;101770.72;4966166;28;20105;-81
2022/07/13 04:54:44;;;;;;;11.65;10.07;;;;;;;24.65;62.94;101908.19;4991031;28;20080;-81
2022/07/13 04:57:11;;;;;;;17.02;10.95;;;;;;;24.78;62.59;101912.84;5009582;28;20054;-81
2022/07/13 04:59:38;;;;;;;14.52;10.15;;;;;;;24.47;62.55;101867.13;5008651;28;20493;-81
2022/07/13 05:02:04;;;;;;;14.93;10.32;;;;;;;24.84;62.04;101911.22;4992397;28;20104;-81
2022/07/13 05:04:31;;;;;;;11.10;9.38;;;;;;;24.65;61.82;101872.88;4992003;28;20057;-80
2022/07/13 05:06:59;;;;;;;17.73;10.10;;;;;;;24.85;61.64;101896.59;4990655;28;20462;-81
2022/07/13 05:09:26;;;;;;;10.60;9.40;;;;;;;24.93;61.68;101920.91;4988701;28;20050;-82
2022/07/13 05:11:52;;;;;;;16.17;9.15;;;;;;;24.91;61.46;101912.94;4971436;28;20054;-81
2022/07/13 05:14:19;;;;;;;15.43;9.20;;;;;;;25.00;61.34;101929.06;4971481;28;20490;-82
2022/07/13 05:16:46;;;;;;;13.57;8.02;;;;;;;24.13;61.63;101778.31;4988568;28;20081;-83
2022/07/13 05:19:13;;;;;;;9.35;8.38;;;;;;;25.08;61.69;101928.94;4987996;28;20498;-81
2022/07/13 05:21:39;;;;;;;11.68;8.20;;;;;;;24.43;61.91;101812.38;4970722;28;20108;-82
2022/07/13 05:24:06;;;;;;;13.20;8.20;;;;;;;25.29;61.52;101937.03;4987767;28;20054;-82
2022/07/13 05:26:33;;;;;;;11.60;9.50;;;;;;;25.29;60.98;101928.88;4957296;28;20063;-81
2022/07/13 05:29:02;;;;;;;13.23;8.93;;;;;;;25.36;60.88;101940.56;4970216;28;20129;-82
2022/07/13 05:31:29;;;;;;;19.55;9.52;;;;;;;25.34;61.12;101912.78;4954681;28;20383;-82
2022/07/13 05:33:56;;;;;;;26.73;9.98;;;;;;;25.21;60.95;101879.28;4974171;28;20053;-82
2022/07/13 05:36:23;;;;;;;9.80;8.52;;;;;;;25.61;60.73;101931.91;4950641;28;20126;-81
2022/07/13 05:38:49;;;;;;;27.13;9.93;;;;;;;25.67;60.69;101939.25;4953101;28;20085;-81
2022/07/13 05:41:16;;;;;;;9.68;8.45;;;;;;;25.33;60.91;101894.78;4988322;28;20050;-81
2022/07/13 05:43:42;;;;;;;11.55;8.20;;;;;;;25.73;60.79;101946.59;4970808;28;20062;-80
2022/07/13 05:46:09;;;;;;;14.82;9.30;;;;;;;25.82;60.48;101949.13;4988149;28;20109;-82
2022/07/13 05:48:36;;;;;;;14.50;9.35;;;;;;;25.82;60.00;101940.97;4986788;28;20568;-82
2022/07/13 05:51:03;;;;;;;16.55;7.97;;;;;;;25.89;60.21;101950.00;4987116;28;20128;-84
2022/07/13 05:53:50;;;;;;;10.82;8.02;;;;;;;25.67;59.83;101905.78;4999235;28;20072;-82
2022/07/13 05:56:17;;;;;;;15.40;7.35;;;;;;;25.82;59.34;101920.03;5005458;28;20046;-80
2022/07/13 05:58:43;;;;;;;13.32;7.30;;;;;;;26.10;59.69;101947.13;4983843;28;20058;-83
2022/07/13 06:01:10;;;;;;;6.45;5.60;;;;;;;25.74;58.62;101869.41;4969934;28;20062;-80
2022/07/13 06:03:37;;;;;;;5.18;4.68;;;;;;;26.19;57.70;101921.41;4966593;28;20065;-81
2022/07/13 06:06:04;;;;;;;6.32;5.00;;;;;;;26.34;56.81;101933.97;4965806;28;20144;-82
2022/07/13 06:08:31;;;;;;;5.05;4.00;;;;;;;26.22;56.85;101918.25;4969091;28;20055;-82
2022/07/13 06:10:57;;;;;;;5.65;3.88;;;;;;;26.42;56.89;101939.19;4967435;28;20062;-82
2022/07/13 06:13:28;;;;;;;7.43;4.28;;;;;;;26.48;56.80;101956.56;4967029;28;20130;-83
2022/07/13 06:15:57;;;;;;;4.10;3.80;;;;;;;26.47;56.63;101955.72;4968077;28;20161;-82
2022/07/13 06:18:23;;;;;;;9.38;5.50;;;;;;;26.44;56.62;101934.38;4968304;28;20050;-82
2022/07/13 06:20:51;;;;;;;6.88;4.05;;;;;;;26.58;56.07;101941.53;4967989;28;20086;-81
2022/07/13 06:23:18;;;;;;;7.13;4.18;;;;;;;26.77;56.09;101966.22;4968051;28;20062;-83
2022/07/13 06:25:46;;;;;;;8.00;4.22;;;;;;;26.89;55.50;101961.81;4968853;28;20374;-82
2022/07/13 06:28:13;;;;;;;7.50;4.28;;;;;;;27.04;54.90;101958.84;4967989;28;20435;-81
2022/07/13 06:30:40;;;;;;;4.78;4.35;;;;;;;26.91;54.92;101956.97;4965547;28;20105;-81
2022/07/13 06:33:07;;;;;;;6.72;4.43;;;;;;;26.94;55.03;101963.88;4967339;28;20467;-81
2022/07/13 06:35:34;;;;;;;6.53;4.63;;;;;;;26.94;55.05;101966.63;4966357;28;20113;-81
2022/07/13 06:38:00;;;;;;;7.68;4.35;;;;;;;26.62;54.20;101882.84;4952764;28;20086;-81
2022/07/13 06:40:27;;;;;;;6.95;3.65;;;;;;;26.99;54.26;101967.69;4977947;28;20057;-81
2022/07/13 06:42:54;;;;;;;6.32;3.63;;;;;;;26.82;54.20;101959.09;4986999;28;20050;-81
2022/07/13 06:45:22;;;;;;;5.40;3.45;;;;;;;26.98;54.31;101979.59;4984911;28;20252;-82
2022/07/13 06:47:51;;;;;;;4.47;3.35;;;;;;;26.97;54.27;101977.94;4986668;28;20061;-79
2022/07/13 06:50:18;;;;;;;4.20;3.55;;;;;;;26.95;54.40;101969.13;4986018;28;20061;-82
2022/07/13 06:52:45;;;;;;;4.68;3.30;;;;;;;27.10;53.10;101984.41;4984590;28;20120;-81
2022/07/13 06:55:12;;;;;;;9.23;4.20;;;;;;;27.27;52.57;101980.22;4984588;28;20050;-82
2022/07/13 06:57:39;;;;;;;6.30;3.80;;;;;;;27.03;51.33;101924.47;4984393;28;20149;-82
2022/07/13 07:00:08;;;;;;;5.88;3.47;;;;;;;27.14;51.14;101952.94;4985654;28;20108;-81
2022/07/13 07:02:37;;;;;;;5.47;3.97;;;;;;;27.35;51.37;101985.41;4989554;28;20058;-82
2022/07/13 07:05:07;;;;;;;10.70;4.35;;;;;;;27.40;51.85;101996.50;4990207;28;20064;-84
2022/07/13 07:07:55;;;;;;;7.63;4.05;;;;;;;27.57;50.89;101987.84;5008471;28;20112;-80
2022/07/13 07:10:21;;;;;;;3.88;2.90;;;;;;;26.54;49.54;101817.72;5010499;28;20283;-81
2022/07/13 07:12:55;;;;;;;5.85;3.35;;;;;;;27.61;48.91;101972.75;4998528;28;20248;-83
2022/07/13 07:15:23;;;;;;;5.70;2.90;;;;;;;27.66;49.27;101989.28;4999450;28;20046;-82
2022/07/13 07:17:50;;;;;;;4.30;3.58;;;;;;;27.82;49.00;101982.50;5009941;28;20050;-84
2022/07/13 07:20:18;;;;;;;4.15;2.75;;;;;;;27.98;47.10;101981.19;5015505;28;20030;-84
2022/07/13 07:22:46;;;;;;;3.83;2.60;;;;;;;27.65;46.72;101944.81;5007936;28;20104;-82
2022/07/13 07:25:14;;;;;;;3.85;3.22;;;;;;;27.90;47.00;101964.00;5019917;28;20050;-85
2022/07/13 07:27:41;;;;;;;6.13;3.88;;;;;;;27.90;47.38;101968.63;5009447;28;20573;-84
2022/07/13 07:30:08;;;;;;;7.22;3.55;;;;;;;28.06;46.81;101978.19;5006438;28;20080;-83
2022/07/13 07:32:35;;;;;;;8.23;3.75;;;;;;;27.91;47.48;101979.34;4997469;28;20038;-83
2022/07/13 07:35:02;;;;;;;7.95;3.30;;;;;;;27.20;48.22;101868.47;5007797;28;20390;-83
2022/07/13 07:37:28;;;;;;;5.38;3.10;;;;;;;28.12;47.61;101991.78;4990116;28;20637;-82
2022/07/13 07:39:55;;;;;;;7.07;3.70;;;;;;;28.24;47.75;101997.38;5007387;28;20650;-82
2022/07/13 07:42:22;;;;;;;3.47;2.90;;;;;;;27.85;45.40;101922.91;4989015;28;20057;-82
2022/07/13 07:44:49;;;;;;;4.78;3.60;;;;;;;28.15;45.90;101985.06;4988536;28;20509;-83
2022/07/13 07:47:16;;;;;;;4.65;3.00;;;;;;;28.23;45.04;101973.88;4974246;28;20082;-83
2022/07/13 07:49:43;;;;;;;6.47;2.97;;;;;;;28.17;44.67;101950.19;4968864;28;20243;-81
2022/07/13 07:52:10;;;;;;;9.45;3.30;;;;;;;28.08;44.20;101932.41;4985904;28;20065;-82
2022/07/13 07:54:57;;;;;;;3.92;3.47;;;;;;;28.29;44.07;101969.44;4952346;28;20054;-83
2022/07/13 07:57:27;;;;;;;7.05;3.53;;;;;;;27.98;43.42;101880.19;4950280;28;20042;-81
2022/07/13 07:59:54;;;;;;;4.43;2.92;;;;;;;28.46;43.30;101975.22;4950145;28;20051;-80
2022/07/13 08:02:21;;;;;;;4.75;3.22;;;;;;;28.22;42.67;101923.06;4950307;28;20110;-79
2022/07/13 08:04:49;;;;;;;9.00;3.25;;;;;;;28.38;42.94;101956.34;4951153;28;20605;-79
2022/07/13 08:07:15;;;;;;;3.28;2.90;;;;;;;28.42;42.39;101963.03;4968713;28;20090;-80
2022/07/13 08:09:43;;;;;;;3.72;2.35;;;;;;;28.50;40.97;101940.94;4952229;28;20054;-81
2022/07/13 08:12:10;;;;;;;5.60;2.70;;;;;;;28.40;41.46;101925.03;4969410;28;20046;-79
2022/07/13 08:14:36;;;;;;;6.88;2.85;;;;;;;28.73;41.40;101960.25;4951435;28;20090;-82
2022/07/13 08:17:03;;;;;;;8.07;2.50;;;;;;;28.76;41.16;101951.63;4951857;28;20051;-82
2022/07/13 08:19:30;;;;;;;7.65;2.80;;;;;;;28.33;41.04;101853.25;4951636;28;20062;-84
2022/07/13 08:22:06;;;;;;;6.65;2.90;;;;;;;28.02;41.74;101813.22;4953120;28;20063;-85
2022/07/13 08:24:35;;;;;;;5.75;2.55;;;;;;;28.70;41.19;101911.53;4951893;28;20062;-85
2022/07/13 08:27:02;;;;;;;2.45;2.00;;;;;;;28.37;40.54;101857.19;4951301;28;20047;-82
2022/07/13 08:29:29;;;;;;;2.85;2.38;;;;;;;27.81;40.24;101759.81;4959146;28;20065;-84
2022/07/13 08:31:55;;;;;;;3.35;2.30;;;;;;;28.85;40.56;101908.41;4991929;28;20054;-82
2022/07/13 08:39:54;;;;;;;2.70;2.00;;;;;;;29.27;39.68;101933.19;5003116;28;20054;-84
2022/07/13 08:42:21;;;;;;;3.72;2.65;;;;;;;28.82;40.16;101862.44;4992689;28;20174;-84
2022/07/13 08:44:48;;;;;;;2.72;2.35;;;;;;;28.77;39.78;101811.19;4993009;28;20295;-83
2022/07/13 08:47:17;;;;;;;4.63;2.47;;;;;;;29.49;39.79;101930.84;4992827;28;20140;-83
2022/07/13 08:49:44;;;;;;;4.25;2.40;;;;;;;28.56;40.19;101778.88;4993025;28;20050;-84
2022/07/13 08:52:12;;;;;;;3.28;2.28;;;;;;;29.22;39.62;101866.59;4992829;28;20053;-81
2022/07/13 08:54:39;;;;;;;3.83;2.85;;;;;;;28.73;39.66;101774.44;4993341;28;20089;-83
2022/07/13 08:57:05;;;;;;;2.70;2.50;;;;;;;29.84;39.51;101932.91;4993366;28;20057;-85
2022/07/13 08:59:33;;;;;;;6.30;3.08;;;;;;;28.73;39.46;101755.31;4993698;28;20402;-82
2022/07/13 09:02:00;;;;;;;4.00;2.40;;;;;;;29.97;38.59;101921.75;4992963;28;20081;-83
2022/07/13 09:04:28;;;;;;;3.83;2.80;;;;;;;30.12;38.56;101924.03;4992756;28;20123;-85
2022/07/13 09:06:56;;;;;;;4.93;2.60;;;;;;;30.16;38.65;101929.88;4992892;28;20513;-84
2022/07/13 09:09:42;;;;;;;3.20;2.38;;;;;;;29.18;38.20;101774.09;4999893;28;20047;-84
2022/07/13 09:12:29;;;;;;;2.47;2.28;;;;;;;29.78;38.26;101862.66;4975461;28;20049;-83
2022/07/13 09:15:06;;;;;;;5.85;3.20;;;;;;;30.02;38.57;101863.53;4973010;28;20584;-83
2022/07/13 09:17:42;;;;;;;5.72;3.08;;;;;;;30.42;38.72;101929.47;4973214;28;20050;-83
2022/07/13 09:20:17;;;;;;;3.22;2.42;;;;;;;29.85;38.86;101857.91;4990484;28;20043;-83
2022/07/13 09:22:48;;;;;;;4.85;2.78;;;;;;;30.39;38.59;101913.53;4973104;28;20150;-82
2022/07/13 09:25:35;;;;;;;3.50;3.20;;;;;;;30.25;38.62;101879.22;4972797;28;20046;-82
2022/07/13 09:28:09;;;;;;;4.82;2.88;;;;;;;30.72;38.77;101925.78;4974776;28;20054;-84
2022/07/13 09:30:44;;;;;;;6.38;3.25;;;;;;;30.67;38.28;101931.16;4978491;28;20085;-84
2022/07/13 09:33:11;;;;;;;5.85;3.20;;;;;;;30.58;38.97;101916.13;4979863;28;20078;-84
2022/07/13 09:35:49;;;;;;;3.97;3.25;;;;;;;30.51;39.24;101893.50;4972636;28;20053;-83
2022/07/13 09:38:29;;;;;;;6.93;3.35;;;;;;;30.77;38.78;101914.94;4972434;28;20669;-82
2022/07/13 09:40:56;;;;;;;4.03;2.90;;;;;;;30.91;38.74;101903.75;4991545;28;20053;-84
2022/07/13 09:46:08;;;;;;;4.22;3.00;;;;;;;30.81;38.53;101907.06;5009571;28;20050;-82
2022/07/13 09:48:37;;;;;;;4.38;3.00;;;;;;;30.92;37.25;101894.44;4991507;28;20057;-84
2022/07/13 09:51:05;;;;;;;5.13;3.00;;;;;;;30.93;37.50;101875.03;4991834;28;20054;-83
2022/07/13 09:53:33;;;;;;;3.72;3.03;;;;;;;30.24;37.60;101743.31;4991698;28;20135;-84
2022/07/13 09:56:05;;;;;;;3.88;3.05;;;;;;;30.45;37.25;101758.31;4991444;28;20461;-83
2022/07/13 09:58:35;;;;;;;3.10;2.80;;;;;;;31.34;38.06;101918.88;4991443;28;20050;-85
2022/07/13 10:01:03;;;;;;;7.78;2.97;;;;;;;30.38;36.95;101742.00;5008083;28;20136;-83
2022/07/13 10:03:31;;;;;;;8.70;3.03;;;;;;;30.69;36.14;101761.00;4988516;28;20065;-83
2022/07/13 10:06:00;;;;;;;2.72;2.53;;;;;;;31.54;36.25;101902.88;4989089;28;20326;-83
2022/07/13 10:08:27;;;;;;;4.07;2.60;;;;;;;31.46;36.48;101875.84;4991664;28;20104;-85
2022/07/13 10:10:54;;;;;;;7.90;3.10;;;;;;;30.76;36.17;101732.38;5009081;28;20053;-84
2022/07/13 10:13:21;;;;;;;6.82;2.85;;;;;;;31.17;35.74;101784.44;4991572;28;20049;-85
2022/07/13 10:15:48;;;;;;;3.72;3.08;;;;;;;30.99;34.61;101747.09;5009587;28;20065;-85
2022/07/13 10:18:30;;;;;;;7.43;3.58;;;;;;;32.04;34.41;101904.91;4992334;28;20054;-83
2022/07/13 10:21:04;;;;;;;;;;;;;;;31.93;34.87;101908.50;5009699;28;20552;-84
2022/07/13 10:23:37;;;;;;;5.60;2.70;;;;;;;32.04;34.63;101882.06;5008705;28;20377;-84
2022/07/13 10:26:33;;;;;;;3.08;2.78;;;;;;;32.11;35.18;101891.84;4992344;28;20092;-84
2022/07/13 10:29:08;;;;;;;6.80;3.22;;;;;;;32.15;34.67;101882.00;4991016;28;20049;-85
2022/07/13 10:31:36;;;;;;;3.08;2.17;;;;;;;32.62;32.14;101897.28;5008265;28;20380;-85
2022/07/13 10:34:07;;;;;;;4.30;2.58;;;;;;;32.73;31.81;101909.28;5008227;28;20050;-84
2022/07/13 10:36:57;;;;;;;9.25;2.60;;;;;;;31.76;31.63;101723.72;4993617;28;20386;-83
2022/07/13 10:39:31;;;;;;;4.78;2.60;;;;;;;31.90;31.81;101714.06;4993832;28;20057;-84
2022/07/13 10:42:10;;;;;;;4.10;2.55;;;;;;;33.23;31.19;101901.94;4992591;28;20088;-84
2022/07/13 10:44:43;;;;;;;3.30;2.55;;;;;;;33.26;30.88;101880.28;5009325;28;20402;-86
2022/07/13 10:47:11;;;;;;;7.18;2.47;;;;;;;32.82;30.20;101775.78;4991110;28;20046;-85
2022/07/13 10:49:47;;;;;;;3.00;2.10;;;;;;;32.43;29.89;101701.63;4990676;28;20145;-83
2022/07/13 10:52:26;;;;;;;2.65;2.45;;;;;;;33.75;29.52;101895.94;4990605;28;20469;-85
2022/07/13 10:55:13;;;;;;;3.05;2.75;;;;;;;33.95;30.24;101887.84;4952176;28;20054;-85
2022/07/13 10:57:42;;;;;;;4.93;2.70;;;;;;;33.58;30.00;101832.72;4951618;28;20051;-84
2022/07/13 11:00:18;;;;;;;2.75;2.50;;;;;;;33.11;28.57;101756.28;4972417;28;20252;-84
2022/07/13 11:02:54;;;;;;;4.38;2.67;;;;;;;34.09;30.18;101887.44;4981885;28;20063;-84
2022/07/13 11:05:29;;;;;;;4.32;2.78;;;;;;;33.06;30.37;101706.72;4952049;28;20240;-84
2022/07/13 11:08:15;;;;;;;2.85;2.60;;;;;;;32.99;29.86;101696.75;4952877;28;20380;-83
2022/07/13 11:10:43;;;;;;;3.90;2.30;;;;;;;33.06;30.02;101670.97;4952802;28;20397;-85
2022/07/13 11:13:13;;;;;;;2.65;2.45;;;;;;;34.05;29.08;101799.75;4952998;28;20411;-83
2022/07/13 11:15:55;;;;;;;3.67;2.75;;;;;;;34.47;28.14;101867.03;4953309;28;20058;-84
2022/07/13 11:18:27;;;;;;;6.30;2.88;;;;;;;34.09;28.37;101800.09;4953326;28;20051;-84
2022/07/13 11:20:57;;;;;;;8.10;3.25;;;;;;;33.92;29.40;101788.41;4951642;28;20142;-85
2022/07/13 11:26:45;;;;;;;2.88;2.45;;;;;;;34.82;27.96;101854.56;4969866;28;20050;-85
2022/07/13 11:29:36;;;;;;;7.28;2.35;;;;;;;35.09;27.91;101852.47;4952961;28;20050;-82
2022/07/13 11:32:08;;;;;;;9.20;2.60;;;;;;;34.95;27.87;101833.91;4955172;28;20078;-85
2022/07/13 11:34:39;;;;;;;4.95;2.75;;;;;;;35.00;27.83;101814.59;4974598;28;20053;-84
2022/07/13 11:37:06;;;;;;;3.63;2.10;;;;;;;34.82;27.25;101769.06;4954306;28;20187;-83
2022/07/13 11:39:35;;;;;;;3.55;2.60;;;;;;;35.02;26.50;101780.13;4984062;28;20058;-85